Aviation Digital Data Service (ADDS)

Output produced by METARs form (2208 UTC 16 February 2019)
found at http://www.aviationweather.gov/metar/data/
 
METAR text: RJTO 160700Z 06004KT 9999 FEW025 SCT040 BKN/// 12/02 Q1006
Conditions at: RJTO (OSHIMA AIRPORT , JP) observed 0700 UTC 16 February 2019
Temperature: 12.0°C (54°F)
Dewpoint: 2.0°C (36°F) [RH = 50%]
Pressure (altimeter): 29.70 inches Hg (1006.0 mb)
Winds: from the ENE (60 degrees) at 5 MPH (4 knots; 2.1 m/s)
Visibility: 6 or more miles (10+ km)
Ceiling: at least 12,000 feet AGL
Clouds: few clouds at 2500 feet AGL
scattered clouds at 4000 feet AGL
Weather: no significant weather observed at this time

METAR text: RJTO 160600Z 06008KT 9999 FEW025 BKN/// 12/02 Q1006
Conditions at: RJTO (OSHIMA AIRPORT , JP) observed 0600 UTC 16 February 2019
Temperature: 12.0°C (54°F)
Dewpoint: 2.0°C (36°F) [RH = 50%]
Pressure (altimeter): 29.70 inches Hg (1006.0 mb)
Winds: from the ENE (60 degrees) at 9 MPH (8 knots; 4.1 m/s)
Visibility: 6 or more miles (10+ km)
Ceiling: at least 12,000 feet AGL
Clouds: few clouds at 2500 feet AGL
Weather: no significant weather observed at this time

METAR text: RJTO 160500Z 05007KT 020V090 9999 FEW020 BKN/// 12/05 Q1005
Conditions at: RJTO (OSHIMA AIRPORT , JP) observed 0500 UTC 16 February 2019
Temperature: 12.0°C (54°F)
Dewpoint: 5.0°C (41°F) [RH = 62%]
Pressure (altimeter): 29.68 inches Hg (1005.0 mb)
Winds: from the NE (50 degrees) at 8 MPH (7 knots; 3.6 m/s)
Visibility: 6 or more miles (10+ km)
Ceiling: at least 12,000 feet AGL
Clouds: few clouds at 2000 feet AGL
Weather: no significant weather observed at this time

METAR text: RJTO 160400Z 05006KT 020V090 9999 FEW020 BKN/// 12/05 Q1006
Conditions at: RJTO (OSHIMA AIRPORT , JP) observed 0400 UTC 16 February 2019
Temperature: 12.0°C (54°F)
Dewpoint: 5.0°C (41°F) [RH = 62%]
Pressure (altimeter): 29.70 inches Hg (1006.0 mb)
Winds: from the NE (50 degrees) at 7 MPH (6 knots; 3.1 m/s)
Visibility: 6 or more miles (10+ km)
Ceiling: at least 12,000 feet AGL
Clouds: few clouds at 2000 feet AGL
Weather: no significant weather observed at this time

METAR text: RJTO 160300Z 03006KT 350V070 9999 FEW025 SCT120 BKN/// 11/05 Q1007
Conditions at: RJTO (OSHIMA AIRPORT , JP) observed 0300 UTC 16 February 2019
Temperature: 11.0°C (52°F)
Dewpoint: 5.0°C (41°F) [RH = 66%]
Pressure (altimeter): 29.73 inches Hg (1007.0 mb)
Winds: from the NNE (30 degrees) at 7 MPH (6 knots; 3.1 m/s)
Visibility: 6 or more miles (10+ km)
Ceiling: at least 12,000 feet AGL
Clouds: few clouds at 2500 feet AGL
scattered clouds at 12000 feet AGL
Weather: no significant weather observed at this time

METAR text: RJTO 160200Z 03009KT 340V060 9999 FEW015 SCT140 11/05 Q1008
Conditions at: RJTO (OSHIMA AIRPORT , JP) observed 0200 UTC 16 February 2019
Temperature: 11.0°C (52°F)
Dewpoint: 5.0°C (41°F) [RH = 66%]
Pressure (altimeter): 29.76 inches Hg (1008.0 mb)
Winds: from the NNE (30 degrees) at 10 MPH (9 knots; 4.6 m/s)
Visibility: 6 or more miles (10+ km)
Ceiling: at least 12,000 feet AGL
Clouds: few clouds at 1500 feet AGL
scattered clouds at 14000 feet AGL
Weather: no significant weather observed at this time

METAR text: RJTO 160100Z VRB04KT 9999 FEW013 SCT015 10/06 Q1008
Conditions at: RJTO (OSHIMA AIRPORT , JP) observed 0100 UTC 16 February 2019
Temperature: 10.0°C (50°F)
Dewpoint: 6.0°C (43°F) [RH = 76%]
Pressure (altimeter): 29.76 inches Hg (1008.0 mb)
Winds: variable direction winds at 5 MPH (4 knots; 2.1 m/s)
Visibility: 6 or more miles (10+ km)
Ceiling: at least 12,000 feet AGL
Clouds: few clouds at 1300 feet AGL
scattered clouds at 1500 feet AGL
Weather: no significant weather observed at this time

METAR text: RJTO 160000Z 02005KT 330V040 9999 FEW013 SCT015 BKN140 09/06 Q1009
Conditions at: RJTO (OSHIMA AIRPORT , JP) observed 0000 UTC 16 February 2019
Temperature: 9.0°C (48°F)
Dewpoint: 6.0°C (43°F) [RH = 81%]
Pressure (altimeter): 29.79 inches Hg (1009.0 mb)
Winds: from the NNE (20 degrees) at 6 MPH (5 knots; 2.6 m/s)
Visibility: 6 or more miles (10+ km)
Ceiling: 14000 feet AGL
Clouds: few clouds at 1300 feet AGL
scattered clouds at 1500 feet AGL
broken clouds at 14000 feet AGL
Weather: no significant weather observed at this time

METAR text: RJTO 152300Z 35007KT 300V020 9999 FEW010 SCT015 BKN140 09/06 Q1009
Conditions at: RJTO (OSHIMA AIRPORT , JP) observed 2300 UTC 15 February 2019
Temperature: 9.0°C (48°F)
Dewpoint: 6.0°C (43°F) [RH = 81%]
Pressure (altimeter): 29.79 inches Hg (1009.0 mb)
Winds: from the N (350 degrees) at 8 MPH (7 knots; 3.6 m/s)
Visibility: 6 or more miles (10+ km)
Ceiling: 14000 feet AGL
Clouds: few clouds at 1000 feet AGL
scattered clouds at 1500 feet AGL
broken clouds at 14000 feet AGL
Weather: no significant weather observed at this time